sensor_id;sensor_type;location;lat;lon;timestamp;P1;durP1;ratioP1;P2;durP2;ratioP2
10729;SDS011;5416;59.258;18.128;2023-04-04T00:00:01;3.07;;;2.97;;
10729;SDS011;5416;59.258;18.128;2023-04-04T00:02:28;3.17;;;3.07;;
10729;SDS011;5416;59.258;18.128;2023-04-04T00:04:56;3.30;;;3.20;;
10729;SDS011;5416;59.258;18.128;2023-04-04T00:07:23;3.40;;;3.30;;
10729;SDS011;5416;59.258;18.128;2023-04-04T00:09:51;3.97;;;3.87;;
10729;SDS011;5416;59.258;18.128;2023-04-04T00:12:20;3.40;;;3.30;;
10729;SDS011;5416;59.258;18.128;2023-04-04T00:14:48;3.30;;;3.20;;
10729;SDS011;5416;59.258;18.128;2023-04-04T00:17:15;3.00;;;2.90;;
10729;SDS011;5416;59.258;18.128;2023-04-04T00:19:43;3.53;;;3.43;;
10729;SDS011;5416;59.258;18.128;2023-04-04T00:22:11;3.20;;;3.10;;
10729;SDS011;5416;59.258;18.128;2023-04-04T00:24:38;3.53;;;3.43;;
10729;SDS011;5416;59.258;18.128;2023-04-04T00:27:06;3.40;;;3.30;;
10729;SDS011;5416;59.258;18.128;2023-04-04T00:29:35;3.57;;;3.47;;
10729;SDS011;5416;59.258;18.128;2023-04-04T00:32:02;3.40;;;3.30;;
10729;SDS011;5416;59.258;18.128;2023-04-04T00:34:30;3.40;;;3.30;;
10729;SDS011;5416;59.258;18.128;2023-04-04T00:36:57;3.53;;;3.43;;
10729;SDS011;5416;59.258;18.128;2023-04-04T00:39:24;3.87;;;3.77;;
10729;SDS011;5416;59.258;18.128;2023-04-04T00:41:52;3.90;;;3.80;;
10729;SDS011;5416;59.258;18.128;2023-04-04T00:44:20;3.83;;;3.73;;
10729;SDS011;5416;59.258;18.128;2023-04-04T00:46:49;3.10;;;3.00;;
10729;SDS011;5416;59.258;18.128;2023-04-04T00:49:17;3.40;;;3.30;;
10729;SDS011;5416;59.258;18.128;2023-04-04T00:51:44;3.23;;;3.13;;
10729;SDS011;5416;59.258;18.128;2023-04-04T00:54:11;3.17;;;3.07;;
10729;SDS011;5416;59.258;18.128;2023-04-04T00:56:39;3.27;;;3.17;;
10729;SDS011;5416;59.258;18.128;2023-04-04T00:59:06;3.60;;;3.50;;
10729;SDS011;5416;59.258;18.128;2023-04-04T01:01:34;3.10;;;3.00;;
10729;SDS011;5416;59.258;18.128;2023-04-04T01:04:03;3.50;;;3.40;;
10729;SDS011;5416;59.258;18.128;2023-04-04T01:06:30;3.57;;;3.47;;
10729;SDS011;5416;59.258;18.128;2023-04-04T01:08:58;3.13;;;3.03;;
10729;SDS011;5416;59.258;18.128;2023-04-04T01:11:25;3.70;;;3.60;;
10729;SDS011;5416;59.258;18.128;2023-04-04T01:13:52;3.37;;;3.27;;
10729;SDS011;5416;59.258;18.128;2023-04-04T01:16:20;3.30;;;3.20;;
10729;SDS011;5416;59.258;18.128;2023-04-04T01:18:48;3.07;;;2.97;;
10729;SDS011;5416;59.258;18.128;2023-04-04T01:21:18;3.43;;;3.33;;
10729;SDS011;5416;59.258;18.128;2023-04-04T01:23:48;3.53;;;3.43;;
10729;SDS011;5416;59.258;18.128;2023-04-04T01:26:21;3.40;;;3.30;;
10729;SDS011;5416;59.258;18.128;2023-04-04T01:28:51;3.07;;;2.97;;
10729;SDS011;5416;59.258;18.128;2023-04-04T01:31:20;3.10;;;3.00;;
10729;SDS011;5416;59.258;18.128;2023-04-04T01:33:50;3.73;;;3.63;;
10729;SDS011;5416;59.258;18.128;2023-04-04T01:36:21;3.07;;;2.97;;
10729;SDS011;5416;59.258;18.128;2023-04-04T01:38:51;3.03;;;2.93;;
10729;SDS011;5416;59.258;18.128;2023-04-04T01:41:21;3.13;;;3.03;;
10729;SDS011;5416;59.258;18.128;2023-04-04T01:43:49;2.70;;;2.60;;
10729;SDS011;5416;59.258;18.128;2023-04-04T01:46:18;2.93;;;2.83;;
10729;SDS011;5416;59.258;18.128;2023-04-04T01:48:46;3.10;;;3.00;;
10729;SDS011;5416;59.258;18.128;2023-04-04T01:51:13;3.23;;;3.13;;
10729;SDS011;5416;59.258;18.128;2023-04-04T01:53:41;3.30;;;3.20;;
10729;SDS011;5416;59.258;18.128;2023-04-04T01:56:08;3.10;;;3.00;;
10729;SDS011;5416;59.258;18.128;2023-04-04T01:58:37;3.57;;;3.47;;
10729;SDS011;5416;59.258;18.128;2023-04-04T02:01:05;3.20;;;3.10;;
10729;SDS011;5416;59.258;18.128;2023-04-04T02:03:33;3.20;;;3.10;;
10729;SDS011;5416;59.258;18.128;2023-04-04T02:06:01;3.17;;;3.07;;
10729;SDS011;5416;59.258;18.128;2023-04-04T02:08:28;3.17;;;3.07;;
10729;SDS011;5416;59.258;18.128;2023-04-04T02:10:56;3.40;;;3.30;;
10729;SDS011;5416;59.258;18.128;2023-04-04T02:13:23;3.23;;;3.13;;
10729;SDS011;5416;59.258;18.128;2023-04-04T02:15:52;3.07;;;2.97;;
10729;SDS011;5416;59.258;18.128;2023-04-04T02:18:19;2.97;;;2.87;;
10729;SDS011;5416;59.258;18.128;2023-04-04T02:20:53;3.27;;;3.17;;
10729;SDS011;5416;59.258;18.128;2023-04-04T02:23:21;3.10;;;3.00;;
10729;SDS011;5416;59.258;18.128;2023-04-04T02:25:48;3.40;;;3.30;;
10729;SDS011;5416;59.258;18.128;2023-04-04T02:28:16;2.70;;;2.60;;
10729;SDS011;5416;59.258;18.128;2023-04-04T02:30:43;3.27;;;3.17;;
10729;SDS011;5416;59.258;18.128;2023-04-04T02:33:12;3.03;;;2.93;;
10729;SDS011;5416;59.258;18.128;2023-04-04T02:35:39;2.70;;;2.60;;
10729;SDS011;5416;59.258;18.128;2023-04-04T02:38:07;2.87;;;2.77;;
10729;SDS011;5416;59.258;18.128;2023-04-04T02:40:34;3.17;;;3.07;;
10729;SDS011;5416;59.258;18.128;2023-04-04T02:43:03;3.17;;;3.07;;
10729;SDS011;5416;59.258;18.128;2023-04-04T02:45:30;2.90;;;2.80;;
10729;SDS011;5416;59.258;18.128;2023-04-04T02:47:58;3.10;;;3.00;;
10729;SDS011;5416;59.258;18.128;2023-04-04T02:50:27;2.90;;;2.80;;
10729;SDS011;5416;59.258;18.128;2023-04-04T02:52:57;3.13;;;3.03;;
10729;SDS011;5416;59.258;18.128;2023-04-04T02:55:25;3.33;;;3.23;;
10729;SDS011;5416;59.258;18.128;2023-04-04T02:57:52;3.50;;;3.40;;
10729;SDS011;5416;59.258;18.128;2023-04-04T03:00:20;3.10;;;3.00;;
10729;SDS011;5416;59.258;18.128;2023-04-04T03:02:51;3.23;;;3.13;;
10729;SDS011;5416;59.258;18.128;2023-04-04T03:05:19;3.27;;;3.17;;
10729;SDS011;5416;59.258;18.128;2023-04-04T03:07:49;2.97;;;2.87;;
10729;SDS011;5416;59.258;18.128;2023-04-04T03:10:20;2.80;;;2.70;;
10729;SDS011;5416;59.258;18.128;2023-04-04T03:12:47;3.03;;;2.93;;
10729;SDS011;5416;59.258;18.128;2023-04-04T03:15:15;3.33;;;3.23;;
10729;SDS011;5416;59.258;18.128;2023-04-04T03:17:42;2.93;;;2.83;;
10729;SDS011;5416;59.258;18.128;2023-04-04T03:20:10;3.17;;;3.07;;
10729;SDS011;5416;59.258;18.128;2023-04-04T03:22:39;3.10;;;3.00;;
10729;SDS011;5416;59.258;18.128;2023-04-04T03:25:08;2.93;;;2.83;;
10729;SDS011;5416;59.258;18.128;2023-04-04T03:27:36;3.17;;;3.07;;
10729;SDS011;5416;59.258;18.128;2023-04-04T03:30:04;2.80;;;2.70;;
10729;SDS011;5416;59.258;18.128;2023-04-04T03:32:31;2.97;;;2.87;;
10729;SDS011;5416;59.258;18.128;2023-04-04T03:34:59;3.17;;;3.07;;
10729;SDS011;5416;59.258;18.128;2023-04-04T03:37:27;3.27;;;3.17;;
10729;SDS011;5416;59.258;18.128;2023-04-04T03:39:55;3.23;;;3.13;;
10729;SDS011;5416;59.258;18.128;2023-04-04T03:42:23;3.47;;;3.37;;
10729;SDS011;5416;59.258;18.128;2023-04-04T03:44:52;3.37;;;3.27;;
10729;SDS011;5416;59.258;18.128;2023-04-04T03:47:19;3.03;;;2.93;;
10729;SDS011;5416;59.258;18.128;2023-04-04T03:49:46;3.03;;;2.93;;
10729;SDS011;5416;59.258;18.128;2023-04-04T03:52:15;3.07;;;2.97;;
10729;SDS011;5416;59.258;18.128;2023-04-04T03:54:43;3.03;;;2.93;;
10729;SDS011;5416;59.258;18.128;2023-04-04T03:57:10;3.43;;;3.33;;
10729;SDS011;5416;59.258;18.128;2023-04-04T03:59:39;3.13;;;3.03;;
10729;SDS011;5416;59.258;18.128;2023-04-04T04:02:06;2.93;;;2.83;;
10729;SDS011;5416;59.258;18.128;2023-04-04T04:04:33;3.23;;;3.13;;
10729;SDS011;5416;59.258;18.128;2023-04-04T04:07:01;2.80;;;2.70;;
10729;SDS011;5416;59.258;18.128;2023-04-04T04:09:28;3.40;;;3.30;;
10729;SDS011;5416;59.258;18.128;2023-04-04T04:11:55;3.93;;;3.83;;
10729;SDS011;5416;59.258;18.128;2023-04-04T04:14:23;3.33;;;3.23;;
10729;SDS011;5416;59.258;18.128;2023-04-04T04:16:51;3.23;;;3.13;;
10729;SDS011;5416;59.258;18.128;2023-04-04T04:19:18;3.13;;;3.03;;
10729;SDS011;5416;59.258;18.128;2023-04-04T04:21:46;2.93;;;2.83;;
10729;SDS011;5416;59.258;18.128;2023-04-04T04:24:13;3.43;;;3.33;;
10729;SDS011;5416;59.258;18.128;2023-04-04T04:26:40;3.10;;;3.00;;
10729;SDS011;5416;59.258;18.128;2023-04-04T04:29:08;3.13;;;3.03;;
10729;SDS011;5416;59.258;18.128;2023-04-04T04:31:36;3.00;;;2.90;;
10729;SDS011;5416;59.258;18.128;2023-04-04T04:34:05;3.03;;;2.93;;
10729;SDS011;5416;59.258;18.128;2023-04-04T04:36:33;3.13;;;3.03;;
10729;SDS011;5416;59.258;18.128;2023-04-04T04:39:00;2.73;;;2.63;;
10729;SDS011;5416;59.258;18.128;2023-04-04T04:41:28;3.13;;;3.03;;
10729;SDS011;5416;59.258;18.128;2023-04-04T04:43:56;3.33;;;3.23;;
10729;SDS011;5416;59.258;18.128;2023-04-04T04:46:23;3.37;;;3.27;;
10729;SDS011;5416;59.258;18.128;2023-04-04T04:48:51;3.70;;;3.60;;
10729;SDS011;5416;59.258;18.128;2023-04-04T04:51:19;2.87;;;2.77;;
10729;SDS011;5416;59.258;18.128;2023-04-04T04:53:47;3.43;;;3.33;;
10729;SDS011;5416;59.258;18.128;2023-04-04T04:56:15;3.00;;;2.90;;
10729;SDS011;5416;59.258;18.128;2023-04-04T04:58:42;3.50;;;3.40;;
10729;SDS011;5416;59.258;18.128;2023-04-04T05:01:11;3.20;;;3.10;;
10729;SDS011;5416;59.258;18.128;2023-04-04T05:03:39;3.13;;;3.03;;
10729;SDS011;5416;59.258;18.128;2023-04-04T05:06:06;3.23;;;3.13;;
10729;SDS011;5416;59.258;18.128;2023-04-04T05:08:34;3.33;;;3.23;;
10729;SDS011;5416;59.258;18.128;2023-04-04T05:11:02;3.27;;;3.17;;
10729;SDS011;5416;59.258;18.128;2023-04-04T05:13:29;3.43;;;3.33;;
10729;SDS011;5416;59.258;18.128;2023-04-04T05:15:56;3.37;;;3.27;;
10729;SDS011;5416;59.258;18.128;2023-04-04T05:18:24;2.83;;;2.73;;
10729;SDS011;5416;59.258;18.128;2023-04-04T05:20:52;3.13;;;3.03;;
10729;SDS011;5416;59.258;18.128;2023-04-04T05:23:19;3.23;;;3.13;;
10729;SDS011;5416;59.258;18.128;2023-04-04T05:25:49;2.97;;;2.87;;
10729;SDS011;5416;59.258;18.128;2023-04-04T05:28:17;3.47;;;3.37;;
10729;SDS011;5416;59.258;18.128;2023-04-04T05:30:44;3.83;;;3.73;;
10729;SDS011;5416;59.258;18.128;2023-04-04T05:33:12;3.13;;;3.03;;
10729;SDS011;5416;59.258;18.128;2023-04-04T05:35:39;3.70;;;3.60;;
10729;SDS011;5416;59.258;18.128;2023-04-04T05:38:06;3.23;;;3.13;;
10729;SDS011;5416;59.258;18.128;2023-04-04T05:40:34;3.93;;;3.83;;
10729;SDS011;5416;59.258;18.128;2023-04-04T05:43:02;3.67;;;3.57;;
10729;SDS011;5416;59.258;18.128;2023-04-04T05:45:29;3.87;;;3.77;;
10729;SDS011;5416;59.258;18.128;2023-04-04T05:47:57;3.73;;;3.63;;
10729;SDS011;5416;59.258;18.128;2023-04-04T05:50:24;3.23;;;3.13;;
10729;SDS011;5416;59.258;18.128;2023-04-04T05:52:52;3.47;;;3.37;;
10729;SDS011;5416;59.258;18.128;2023-04-04T05:55:21;3.57;;;3.47;;
10729;SDS011;5416;59.258;18.128;2023-04-04T08:54:32;3.90;;;3.80;;
10729;SDS011;5416;59.258;18.128;2023-04-04T08:57:00;3.97;;;3.87;;
10729;SDS011;5416;59.258;18.128;2023-04-04T08:59:28;4.13;;;4.03;;
10729;SDS011;5416;59.258;18.128;2023-04-04T09:01:56;4.03;;;3.93;;
10729;SDS011;5416;59.258;18.128;2023-04-04T09:04:27;3.40;;;3.30;;
10729;SDS011;5416;59.258;18.128;2023-04-04T09:06:55;3.77;;;3.57;;
10729;SDS011;5416;59.258;18.128;2023-04-04T09:09:24;4.10;;;4.00;;
10729;SDS011;5416;59.258;18.128;2023-04-04T09:11:53;4.30;;;4.20;;
10729;SDS011;5416;59.258;18.128;2023-04-04T09:14:20;4.37;;;4.27;;
10729;SDS011;5416;59.258;18.128;2023-04-04T09:16:47;3.87;;;3.77;;
10729;SDS011;5416;59.258;18.128;2023-04-04T09:19:15;4.70;;;4.53;;
10729;SDS011;5416;59.258;18.128;2023-04-04T09:21:44;4.23;;;4.13;;
10729;SDS011;5416;59.258;18.128;2023-04-04T09:24:12;3.93;;;3.83;;
10729;SDS011;5416;59.258;18.128;2023-04-04T09:26:50;4.27;;;4.17;;
10729;SDS011;5416;59.258;18.128;2023-04-04T09:29:19;4.70;;;4.50;;
10729;SDS011;5416;59.258;18.128;2023-04-04T09:31:47;4.03;;;3.93;;
10729;SDS011;5416;59.258;18.128;2023-04-04T09:34:14;5.07;;;4.87;;
10729;SDS011;5416;59.258;18.128;2023-04-04T09:36:43;4.50;;;4.40;;
10729;SDS011;5416;59.258;18.128;2023-04-04T09:39:10;4.50;;;4.40;;
10729;SDS011;5416;59.258;18.128;2023-04-04T09:41:40;4.23;;;4.13;;
10729;SDS011;5416;59.258;18.128;2023-04-04T09:44:09;4.00;;;3.90;;
10729;SDS011;5416;59.258;18.128;2023-04-04T09:46:38;3.97;;;3.87;;
10729;SDS011;5416;59.258;18.128;2023-04-04T09:49:08;4.53;;;4.43;;
10729;SDS011;5416;59.258;18.128;2023-04-04T09:51:36;4.30;;;4.20;;
10729;SDS011;5416;59.258;18.128;2023-04-04T09:54:05;4.70;;;4.50;;
10729;SDS011;5416;59.258;18.128;2023-04-04T09:56:35;4.47;;;4.37;;
10729;SDS011;5416;59.258;18.128;2023-04-04T09:59:04;4.33;;;4.23;;
10729;SDS011;5416;59.258;18.128;2023-04-04T10:01:32;4.00;;;3.90;;
10729;SDS011;5416;59.258;18.128;2023-04-04T10:04:01;4.20;;;4.10;;
10729;SDS011;5416;59.258;18.128;2023-04-04T10:06:30;3.60;;;3.50;;
10729;SDS011;5416;59.258;18.128;2023-04-04T10:08:57;4.53;;;4.40;;
10729;SDS011;5416;59.258;18.128;2023-04-04T10:11:28;4.13;;;4.03;;
10729;SDS011;5416;59.258;18.128;2023-04-04T10:13:56;4.53;;;4.40;;
10729;SDS011;5416;59.258;18.128;2023-04-04T10:16:24;4.60;;;4.50;;
10729;SDS011;5416;59.258;18.128;2023-04-04T10:18:52;4.50;;;4.40;;
10729;SDS011;5416;59.258;18.128;2023-04-04T10:21:21;4.73;;;4.57;;
10729;SDS011;5416;59.258;18.128;2023-04-04T10:23:48;4.10;;;4.00;;
10729;SDS011;5416;59.258;18.128;2023-04-04T10:26:17;5.17;;;4.97;;
10729;SDS011;5416;59.258;18.128;2023-04-04T10:28:45;3.73;;;3.63;;
10729;SDS011;5416;59.258;18.128;2023-04-04T10:31:15;4.90;;;4.70;;
10729;SDS011;5416;59.258;18.128;2023-04-04T10:33:45;4.17;;;4.07;;
10729;SDS011;5416;59.258;18.128;2023-04-04T10:36:15;4.47;;;4.37;;
10729;SDS011;5416;59.258;18.128;2023-04-04T10:38:50;5.00;;;4.80;;
10729;SDS011;5416;59.258;18.128;2023-04-04T10:41:20;4.37;;;4.27;;
10729;SDS011;5416;59.258;18.128;2023-04-04T10:43:48;4.10;;;4.00;;
10729;SDS011;5416;59.258;18.128;2023-04-04T10:46:18;4.10;;;4.00;;
10729;SDS011;5416;59.258;18.128;2023-04-04T10:48:47;4.10;;;4.00;;
10729;SDS011;5416;59.258;18.128;2023-04-04T10:51:15;4.93;;;4.73;;
10729;SDS011;5416;59.258;18.128;2023-04-04T10:53:42;4.47;;;4.37;;
10729;SDS011;5416;59.258;18.128;2023-04-04T10:56:11;4.27;;;4.17;;
10729;SDS011;5416;59.258;18.128;2023-04-04T10:58:39;4.30;;;4.20;;
10729;SDS011;5416;59.258;18.128;2023-04-04T11:01:07;4.47;;;4.37;;
10729;SDS011;5416;59.258;18.128;2023-04-04T11:06:17;4.07;;;3.97;;
10729;SDS011;5416;59.258;18.128;2023-04-04T11:08:52;4.23;;;4.13;;
10729;SDS011;5416;59.258;18.128;2023-04-04T11:11:21;4.63;;;4.50;;
10729;SDS011;5416;59.258;18.128;2023-04-04T11:13:57;4.60;;;4.40;;
10729;SDS011;5416;59.258;18.128;2023-04-04T11:16:26;3.90;;;3.80;;
10729;SDS011;5416;59.258;18.128;2023-04-04T11:19:09;4.60;;;4.47;;
10729;SDS011;5416;59.258;18.128;2023-04-04T11:21:39;4.43;;;4.33;;
10729;SDS011;5416;59.258;18.128;2023-04-04T11:24:13;4.57;;;4.40;;
10729;SDS011;5416;59.258;18.128;2023-04-04T11:26:45;3.97;;;3.87;;
10729;SDS011;5416;59.258;18.128;2023-04-04T11:29:19;4.20;;;4.10;;
10729;SDS011;5416;59.258;18.128;2023-04-04T11:31:47;4.87;;;4.67;;
10729;SDS011;5416;59.258;18.128;2023-04-04T11:34:28;4.13;;;4.03;;
10729;SDS011;5416;59.258;18.128;2023-04-04T11:36:55;4.17;;;4.07;;
10729;SDS011;5416;59.258;18.128;2023-04-04T11:39:26;4.50;;;4.40;;
10729;SDS011;5416;59.258;18.128;2023-04-04T11:41:56;3.90;;;3.80;;
10729;SDS011;5416;59.258;18.128;2023-04-04T11:44:27;4.10;;;4.00;;
10729;SDS011;5416;59.258;18.128;2023-04-04T11:46:55;3.83;;;3.73;;
10729;SDS011;5416;59.258;18.128;2023-04-04T11:49:26;3.97;;;3.87;;
10729;SDS011;5416;59.258;18.128;2023-04-04T11:51:54;4.23;;;4.13;;
10729;SDS011;5416;59.258;18.128;2023-04-04T11:54:22;4.33;;;4.23;;
10729;SDS011;5416;59.258;18.128;2023-04-04T11:56:49;4.33;;;4.23;;
10729;SDS011;5416;59.258;18.128;2023-04-04T11:59:19;4.30;;;4.20;;
10729;SDS011;5416;59.258;18.128;2023-04-04T12:01:47;4.87;;;4.67;;
10729;SDS011;5416;59.258;18.128;2023-04-04T12:04:18;4.10;;;4.00;;
10729;SDS011;5416;59.258;18.128;2023-04-04T12:06:45;3.97;;;3.87;;
10729;SDS011;5416;59.258;18.128;2023-04-04T12:09:13;4.27;;;4.17;;
10729;SDS011;5416;59.258;18.128;2023-04-04T12:11:42;4.57;;;4.47;;
10729;SDS011;5416;59.258;18.128;2023-04-04T12:14:14;4.47;;;4.37;;
10729;SDS011;5416;59.258;18.128;2023-04-04T12:16:43;4.80;;;4.60;;
10729;SDS011;5416;59.258;18.128;2023-04-04T12:19:10;4.40;;;4.30;;
10729;SDS011;5416;59.258;18.128;2023-04-04T12:21:38;4.03;;;3.93;;
10729;SDS011;5416;59.258;18.128;2023-04-04T12:24:06;4.77;;;4.57;;
10729;SDS011;5416;59.258;18.128;2023-04-04T12:26:33;4.40;;;4.30;;
10729;SDS011;5416;59.258;18.128;2023-04-04T12:29:01;4.47;;;4.37;;
10729;SDS011;5416;59.258;18.128;2023-04-04T12:31:29;4.47;;;4.37;;
10729;SDS011;5416;59.258;18.128;2023-04-04T12:33:59;3.97;;;3.87;;
10729;SDS011;5416;59.258;18.128;2023-04-04T12:36:27;4.50;;;4.40;;
10729;SDS011;5416;59.258;18.128;2023-04-04T12:38:56;4.30;;;4.20;;
10729;SDS011;5416;59.258;18.128;2023-04-04T12:41:24;4.57;;;4.47;;
10729;SDS011;5416;59.258;18.128;2023-04-04T12:43:51;4.13;;;4.03;;
10729;SDS011;5416;59.258;18.128;2023-04-04T12:46:26;4.63;;;4.43;;
10729;SDS011;5416;59.258;18.128;2023-04-04T12:48:54;4.50;;;4.40;;
10729;SDS011;5416;59.258;18.128;2023-04-04T12:51:30;4.13;;;4.03;;
10729;SDS011;5416;59.258;18.128;2023-04-04T12:53:58;4.17;;;4.07;;
10729;SDS011;5416;59.258;18.128;2023-04-04T12:56:26;4.50;;;4.30;;
10729;SDS011;5416;59.258;18.128;2023-04-04T12:58:59;4.50;;;4.40;;
10729;SDS011;5416;59.258;18.128;2023-04-04T13:01:28;4.93;;;4.73;;
10729;SDS011;5416;59.258;18.128;2023-04-04T13:03:56;4.03;;;3.93;;
10729;SDS011;5416;59.258;18.128;2023-04-04T13:06:23;4.93;;;4.73;;
10729;SDS011;5416;59.258;18.128;2023-04-04T13:08:55;5.37;;;5.17;;
10729;SDS011;5416;59.258;18.128;2023-04-04T13:11:22;5.30;;;5.10;;
10729;SDS011;5416;59.258;18.128;2023-04-04T13:13:58;4.10;;;4.00;;
10729;SDS011;5416;59.258;18.128;2023-04-04T13:16:29;4.90;;;4.70;;
10729;SDS011;5416;59.258;18.128;2023-04-04T13:18:57;4.83;;;4.63;;
10729;SDS011;5416;59.258;18.128;2023-04-04T13:21:24;4.30;;;4.20;;
10729;SDS011;5416;59.258;18.128;2023-04-04T13:23:51;4.13;;;4.03;;
10729;SDS011;5416;59.258;18.128;2023-04-04T13:26:20;4.43;;;4.33;;
10729;SDS011;5416;59.258;18.128;2023-04-04T13:28:47;4.57;;;4.43;;
10729;SDS011;5416;59.258;18.128;2023-04-04T13:31:15;5.03;;;4.83;;
10729;SDS011;5416;59.258;18.128;2023-04-04T13:33:42;4.73;;;4.53;;
10729;SDS011;5416;59.258;18.128;2023-04-04T13:36:09;4.47;;;4.37;;
10729;SDS011;5416;59.258;18.128;2023-04-04T13:38:38;4.13;;;4.03;;
10729;SDS011;5416;59.258;18.128;2023-04-04T13:41:06;4.83;;;4.63;;
10729;SDS011;5416;59.258;18.128;2023-04-04T13:43:34;3.93;;;3.83;;
10729;SDS011;5416;59.258;18.128;2023-04-04T13:46:01;4.03;;;3.93;;
10729;SDS011;5416;59.258;18.128;2023-04-04T13:48:29;4.10;;;4.00;;
10729;SDS011;5416;59.258;18.128;2023-04-04T13:50:56;4.73;;;4.53;;
10729;SDS011;5416;59.258;18.128;2023-04-04T13:53:23;4.37;;;4.27;;
10729;SDS011;5416;59.258;18.128;2023-04-04T13:55:51;4.27;;;4.17;;
10729;SDS011;5416;59.258;18.128;2023-04-04T13:58:18;4.70;;;4.53;;
10729;SDS011;5416;59.258;18.128;2023-04-04T14:00:47;4.20;;;4.10;;
10729;SDS011;5416;59.258;18.128;2023-04-04T14:03:15;4.03;;;3.93;;
10729;SDS011;5416;59.258;18.128;2023-04-04T14:05:43;3.77;;;3.67;;
10729;SDS011;5416;59.258;18.128;2023-04-04T14:08:10;4.37;;;4.27;;
10729;SDS011;5416;59.258;18.128;2023-04-04T14:10:38;4.27;;;4.17;;
10729;SDS011;5416;59.258;18.128;2023-04-04T14:13:05;4.40;;;4.30;;
10729;SDS011;5416;59.258;18.128;2023-04-04T14:15:33;4.13;;;4.03;;
10729;SDS011;5416;59.258;18.128;2023-04-04T14:18:02;4.70;;;4.50;;
10729;SDS011;5416;59.258;18.128;2023-04-04T14:20:29;3.97;;;3.87;;
10729;SDS011;5416;59.258;18.128;2023-04-04T14:22:56;4.37;;;4.27;;
10729;SDS011;5416;59.258;18.128;2023-04-04T14:25:24;4.80;;;4.60;;
10729;SDS011;5416;59.258;18.128;2023-04-04T14:27:51;4.40;;;4.30;;
10729;SDS011;5416;59.258;18.128;2023-04-04T14:30:18;3.70;;;3.60;;
10729;SDS011;5416;59.258;18.128;2023-04-04T14:32:45;3.73;;;3.63;;
10729;SDS011;5416;59.258;18.128;2023-04-04T14:35:16;3.73;;;3.63;;
10729;SDS011;5416;59.258;18.128;2023-04-04T14:37:43;3.97;;;3.87;;
10729;SDS011;5416;59.258;18.128;2023-04-04T15:21:53;3.70;;;3.60;;
10729;SDS011;5416;59.258;18.128;2023-04-04T15:24:21;4.40;;;4.30;;
10729;SDS011;5416;59.258;18.128;2023-04-04T15:26:48;4.10;;;4.00;;
10729;SDS011;5416;59.258;18.128;2023-04-04T15:29:15;3.90;;;3.80;;
10729;SDS011;5416;59.258;18.128;2023-04-04T15:31:43;4.10;;;4.00;;
10729;SDS011;5416;59.258;18.128;2023-04-04T15:34:11;4.03;;;3.93;;
10729;SDS011;5416;59.258;18.128;2023-04-04T15:36:39;4.20;;;4.10;;
10729;SDS011;5416;59.258;18.128;2023-04-04T15:39:08;3.83;;;3.73;;
10729;SDS011;5416;59.258;18.128;2023-04-04T15:41:36;3.97;;;3.87;;
10729;SDS011;5416;59.258;18.128;2023-04-04T15:44:04;3.63;;;3.53;;
10729;SDS011;5416;59.258;18.128;2023-04-04T15:46:31;3.77;;;3.67;;
10729;SDS011;5416;59.258;18.128;2023-04-04T15:48:58;4.40;;;4.30;;
10729;SDS011;5416;59.258;18.128;2023-04-04T15:51:26;4.10;;;4.00;;
10729;SDS011;5416;59.258;18.128;2023-04-04T15:53:55;3.67;;;3.57;;
10729;SDS011;5416;59.258;18.128;2023-04-04T15:56:23;4.17;;;4.07;;
10729;SDS011;5416;59.258;18.128;2023-04-04T15:58:51;4.27;;;4.17;;
10729;SDS011;5416;59.258;18.128;2023-04-04T16:01:19;3.53;;;3.43;;
10729;SDS011;5416;59.258;18.128;2023-04-04T16:03:47;4.07;;;3.97;;
10729;SDS011;5416;59.258;18.128;2023-04-04T16:06:14;3.93;;;3.83;;
10729;SDS011;5416;59.258;18.128;2023-04-04T16:08:41;3.73;;;3.63;;
10729;SDS011;5416;59.258;18.128;2023-04-04T16:11:09;4.37;;;4.27;;
10729;SDS011;5416;59.258;18.128;2023-04-04T16:13:38;4.37;;;4.27;;
10729;SDS011;5416;59.258;18.128;2023-04-04T16:16:05;3.80;;;3.70;;
10729;SDS011;5416;59.258;18.128;2023-04-04T16:18:32;4.33;;;4.23;;
10729;SDS011;5416;59.258;18.128;2023-04-04T16:21:01;4.23;;;4.13;;
10729;SDS011;5416;59.258;18.128;2023-04-04T16:23:29;3.53;;;3.43;;
10729;SDS011;5416;59.258;18.128;2023-04-04T16:25:57;4.17;;;4.07;;
10729;SDS011;5416;59.258;18.128;2023-04-04T16:28:24;3.70;;;3.60;;
10729;SDS011;5416;59.258;18.128;2023-04-04T16:30:53;4.00;;;3.90;;
10729;SDS011;5416;59.258;18.128;2023-04-04T16:33:20;3.73;;;3.63;;
10729;SDS011;5416;59.258;18.128;2023-04-04T16:35:48;4.20;;;4.10;;
10729;SDS011;5416;59.258;18.128;2023-04-04T16:38:16;3.30;;;3.20;;
10729;SDS011;5416;59.258;18.128;2023-04-04T16:40:43;3.77;;;3.67;;
10729;SDS011;5416;59.258;18.128;2023-04-04T16:43:11;4.03;;;3.93;;
10729;SDS011;5416;59.258;18.128;2023-04-04T16:45:38;4.27;;;4.17;;
10729;SDS011;5416;59.258;18.128;2023-04-04T16:48:07;3.73;;;3.63;;
10729;SDS011;5416;59.258;18.128;2023-04-04T16:50:35;3.63;;;3.53;;
10729;SDS011;5416;59.258;18.128;2023-04-04T16:53:02;3.73;;;3.63;;
10729;SDS011;5416;59.258;18.128;2023-04-04T16:55:30;4.30;;;4.20;;
10729;SDS011;5416;59.258;18.128;2023-04-04T16:57:57;4.23;;;4.13;;
10729;SDS011;5416;59.258;18.128;2023-04-04T17:00:24;3.70;;;3.60;;
10729;SDS011;5416;59.258;18.128;2023-04-04T17:02:52;3.73;;;3.63;;
10729;SDS011;5416;59.258;18.128;2023-04-04T17:05:20;3.90;;;3.80;;
10729;SDS011;5416;59.258;18.128;2023-04-04T17:07:48;3.90;;;3.80;;
10729;SDS011;5416;59.258;18.128;2023-04-04T17:10:15;3.73;;;3.63;;
10729;SDS011;5416;59.258;18.128;2023-04-04T17:12:43;3.97;;;3.87;;
10729;SDS011;5416;59.258;18.128;2023-04-04T17:15:11;3.30;;;3.20;;
10729;SDS011;5416;59.258;18.128;2023-04-04T17:17:38;3.67;;;3.57;;
10729;SDS011;5416;59.258;18.128;2023-04-04T17:20:07;3.77;;;3.67;;
10729;SDS011;5416;59.258;18.128;2023-04-04T17:22:42;3.93;;;3.83;;
10729;SDS011;5416;59.258;18.128;2023-04-04T17:25:10;3.73;;;3.63;;
10729;SDS011;5416;59.258;18.128;2023-04-04T17:27:37;3.40;;;3.30;;
10729;SDS011;5416;59.258;18.128;2023-04-04T17:30:05;3.30;;;3.20;;
10729;SDS011;5416;59.258;18.128;2023-04-04T17:32:33;3.87;;;3.77;;
10729;SDS011;5416;59.258;18.128;2023-04-04T17:35:00;3.57;;;3.47;;
10729;SDS011;5416;59.258;18.128;2023-04-04T17:37:28;3.80;;;3.70;;
10729;SDS011;5416;59.258;18.128;2023-04-04T17:39:57;3.47;;;3.37;;
10729;SDS011;5416;59.258;18.128;2023-04-04T17:42:24;3.33;;;3.23;;
10729;SDS011;5416;59.258;18.128;2023-04-04T17:44:51;3.20;;;3.10;;
10729;SDS011;5416;59.258;18.128;2023-04-04T17:47:19;3.23;;;3.13;;
10729;SDS011;5416;59.258;18.128;2023-04-04T17:49:46;3.60;;;3.50;;
10729;SDS011;5416;59.258;18.128;2023-04-04T17:52:15;3.23;;;3.13;;
10729;SDS011;5416;59.258;18.128;2023-04-04T17:54:43;3.53;;;3.43;;
10729;SDS011;5416;59.258;18.128;2023-04-04T17:57:13;3.73;;;3.63;;
10729;SDS011;5416;59.258;18.128;2023-04-04T17:59:40;3.53;;;3.43;;
10729;SDS011;5416;59.258;18.128;2023-04-04T18:02:08;3.43;;;3.33;;
10729;SDS011;5416;59.258;18.128;2023-04-04T18:04:36;3.67;;;3.57;;
10729;SDS011;5416;59.258;18.128;2023-04-04T18:07:03;3.70;;;3.60;;
10729;SDS011;5416;59.258;18.128;2023-04-04T18:09:32;4.33;;;4.23;;
10729;SDS011;5416;59.258;18.128;2023-04-04T18:12:00;4.07;;;3.97;;
10729;SDS011;5416;59.258;18.128;2023-04-04T18:14:28;4.10;;;4.00;;
10729;SDS011;5416;59.258;18.128;2023-04-04T18:16:55;4.03;;;3.93;;
10729;SDS011;5416;59.258;18.128;2023-04-04T18:19:23;4.23;;;4.13;;
10729;SDS011;5416;59.258;18.128;2023-04-04T18:21:50;3.60;;;3.50;;
10729;SDS011;5416;59.258;18.128;2023-04-04T18:24:17;3.73;;;3.63;;
10729;SDS011;5416;59.258;18.128;2023-04-04T18:26:45;3.50;;;3.40;;
10729;SDS011;5416;59.258;18.128;2023-04-04T18:29:13;3.60;;;3.50;;
10729;SDS011;5416;59.258;18.128;2023-04-04T18:31:41;3.53;;;3.43;;
10729;SDS011;5416;59.258;18.128;2023-04-04T18:34:09;4.13;;;4.03;;